Time;durP1;ratioP1;P1;durP2;ratioP2;P2;SDS_P1;SDS_P2;PMS_P1;PMS_P2;Temp;Humidity;BMP_temperature;BMP_pressure;BME280_temperature;BME280_humidity;BME280_pressure;Samples;Min_cycle;Max_cycle;Signal;HPM_P1;HPM_P2
2022/06/13 00:00:13;;;;;;;11.38;7.50;;;15.40;99.90;;;;;;5038726;28;20080;-76
2022/06/13 00:02:41;;;;;;;11.70;7.45;;;15.40;99.90;;;;;;5038168;28;20041;-76
2022/06/13 00:05:09;;;;;;;9.18;6.80;;;15.40;99.90;;;;;;5058514;28;20430;-77
2022/06/13 00:07:38;;;;;;;10.48;7.07;;;15.50;99.90;;;;;;5043189;28;20073;-76
2022/06/13 00:10:07;;;;;;;11.73;6.82;;;15.50;99.90;;;;;;5059091;28;20527;-76
2022/06/13 00:12:34;;;;;;;11.10;7.18;;;15.50;99.90;;;;;;5056542;28;20471;-76
2022/06/13 00:15:02;;;;;;;13.55;7.15;;;15.50;99.90;;;;;;5056773;28;20067;-77
2022/06/13 00:17:29;;;;;;;9.88;6.60;;;15.60;99.90;;;;;;5038672;28;20103;-76
2022/06/13 00:19:56;;;;;;;8.35;6.60;;;15.60;99.90;;;;;;5073760;28;20068;-77
2022/06/13 00:22:24;;;;;;;8.60;6.28;;;15.60;99.90;;;;;;5096431;22;20040;-74
2022/06/13 00:24:52;;;;;;;9.15;6.47;;;15.60;99.90;;;;;;5063111;28;20098;-75
2022/06/13 00:27:20;;;;;;;11.23;6.97;;;15.60;99.90;;;;;;5064216;28;20568;-74
2022/06/13 00:29:49;;;;;;;8.77;6.65;;;15.60;99.90;;;;;;5054494;28;20056;-75
2022/06/13 00:32:16;;;;;;;10.35;7.75;;;15.50;99.90;;;;;;5054243;28;20051;-75
2022/06/13 00:34:44;;;;;;;9.93;7.93;;;15.40;99.90;;;;;;5035862;28;20056;-75
2022/06/13 00:37:11;;;;;;;8.60;7.65;;;15.40;99.90;;;;;;5036202;28;20064;-75
2022/06/13 00:39:39;;;;;;;10.55;8.07;;;15.40;99.90;;;;;;5035532;28;20417;-75
2022/06/13 00:42:11;;;;;;;12.85;8.43;;;15.40;99.90;;;;;;5026718;28;20034;-76
2022/06/13 00:44:39;;;;;;;11.63;7.90;;;15.50;99.90;;;;;;5027478;28;20041;-76
2022/06/13 00:47:07;;;;;;;9.40;8.00;;;15.60;99.90;;;;;;5021512;28;20145;-74
2022/06/13 00:49:39;;;;;;;10.40;7.60;;;15.60;99.90;;;;;;5023469;28;20120;-75
2022/06/13 00:52:13;;;;;;;12.75;7.45;;;15.70;99.90;;;;;;5025709;28;20048;-76
2022/06/13 00:54:42;;;;;;;11.85;6.82;;;15.70;99.90;;;;;;5031749;28;20554;-75
2022/06/13 00:57:19;;;;;;;12.05;7.35;;;15.80;99.90;;;;;;5025390;28;20454;-76
2022/06/13 00:59:48;;;;;;;7.90;6.80;;;15.80;99.90;;;;;;5020277;28;20456;-75
2022/06/13 01:02:15;;;;;;;8.43;6.55;;;15.80;99.90;;;;;;5015955;28;20112;-75
2022/06/13 01:04:43;;;;;;;10.95;7.53;;;15.80;99.90;;;;;;5029620;28;20053;-76
2022/06/13 01:07:11;;;;;;;10.55;7.15;;;15.70;99.90;;;;;;5026712;28;20061;-75
2022/06/13 01:12:27;;;;;;;12.32;6.90;;;15.60;99.90;;;;;;5033984;28;20046;-75
2022/06/13 01:15:10;;;;;;;9.07;7.22;;;15.60;99.90;;;;;;5035531;28;20037;-75
2022/06/13 01:18:00;;;;;;;10.43;6.93;;;15.60;99.90;;;;;;5028347;28;20103;-75
2022/06/13 01:20:54;;;;;;;12.45;6.93;;;15.60;99.90;;;;;;5039458;28;20049;-74
2022/06/13 01:23:47;;;;;;;14.55;6.80;;;15.50;99.90;;;;;;5042821;28;20128;-74
2022/06/13 01:26:55;;;;;;;11.48;7.60;;;15.50;99.90;;;;;;5038896;28;20060;-75
2022/06/13 01:29:41;;;;;;;9.90;7.05;;;15.50;99.90;;;;;;5033811;28;20059;-74
2022/06/13 01:32:18;;;;;;;11.02;7.10;;;15.30;99.90;;;;;;5033828;28;20053;-74
2022/06/13 01:34:56;;;;;;;10.25;7.68;;;15.30;99.90;;;;;;5033622;28;20045;-74
2022/06/13 01:37:35;;;;;;;8.20;7.30;;;15.20;99.90;;;;;;5035620;28;20451;-74
2022/06/13 01:40:12;;;;;;;14.65;8.35;;;15.10;99.90;;;;;;5035387;28;20558;-75
2022/06/13 01:42:50;;;;;;;8.88;7.30;;;15.10;99.90;;;;;;5034652;28;20037;-74
2022/06/13 01:45:27;;;;;;;11.80;6.85;;;15.10;99.90;;;;;;5033358;28;20053;-74
2022/06/13 01:48:02;;;;;;;11.68;8.20;;;15.10;99.90;;;;;;5034290;28;20047;-74
2022/06/13 01:50:36;;;;;;;11.20;7.30;;;15.10;99.90;;;;;;5034940;28;20044;-75
2022/06/13 01:53:08;;;;;;;8.68;7.70;;;15.10;99.90;;;;;;5033563;28;20451;-74
2022/06/13 01:55:44;;;;;;;12.32;8.15;;;15.10;99.90;;;;;;5034530;28;20037;-76
2022/06/13 01:58:18;;;;;;;11.25;7.40;;;15.10;99.90;;;;;;5032985;28;20058;-74
2022/06/13 02:00:49;;;;;;;9.73;7.15;;;15.10;99.90;;;;;;5033003;28;20447;-75
2022/06/13 02:03:26;;;;;;;11.02;7.38;;;15.10;99.90;;;;;;5033715;28;20045;-74
2022/06/13 02:05:59;;;;;;;8.55;7.18;;;15.10;99.90;;;;;;5034055;28;20470;-75
2022/06/13 02:08:32;;;;;;;7.95;6.85;;;15.20;99.90;;;;;;5033592;28;20045;-74
2022/06/13 02:11:04;;;;;;;8.38;6.75;;;15.20;99.90;;;;;;5034181;28;20053;-75
2022/06/13 02:13:40;;;;;;;8.10;6.10;;;15.20;99.90;;;;;;5032435;28;20053;-76
2022/06/13 02:16:11;;;;;;;9.52;6.38;;;15.10;99.90;;;;;;5033703;28;20045;-74
2022/06/13 02:18:46;;;;;;;7.55;6.32;;;15.00;99.90;;;;;;5034375;28;20115;-74
2022/06/13 02:21:15;;;;;;;10.52;6.72;;;15.00;99.90;;;;;;5033725;28;20415;-74
2022/06/13 02:23:48;;;;;;;8.48;5.80;;;15.00;99.90;;;;;;5034658;28;20484;-73
2022/06/13 02:26:21;;;;;;;10.25;6.38;;;15.00;99.90;;;;;;5034451;28;20041;-75
2022/06/13 02:28:53;;;;;;;8.48;6.45;;;15.10;99.90;;;;;;5034499;28;20084;-75
2022/06/13 02:31:24;;;;;;;14.18;6.40;;;15.10;99.90;;;;;;5032954;28;20045;-74
2022/06/13 02:33:57;;;;;;;7.22;6.13;;;15.10;99.90;;;;;;5033541;28;20087;-74
2022/06/13 02:36:32;;;;;;;10.65;6.10;;;15.10;99.90;;;;;;5033498;28;20103;-74
2022/06/13 02:39:05;;;;;;;11.85;5.78;;;15.10;99.90;;;;;;5033778;28;20103;-74
2022/06/13 02:41:40;;;;;;;8.82;6.38;;;15.10;99.90;;;;;;5034039;28;20045;-74
2022/06/13 02:44:13;;;;;;;9.52;6.25;;;15.00;99.90;;;;;;5032282;28;20084;-74
2022/06/13 02:46:45;;;;;;;12.25;6.68;;;15.00;99.90;;;;;;5032389;28;20048;-74
2022/06/13 02:49:20;;;;;;;8.52;6.43;;;15.00;99.90;;;;;;5031980;28;20076;-74
2022/06/13 02:51:55;;;;;;;11.07;7.10;;;14.90;99.90;;;;;;5032519;28;20485;-75
2022/06/13 02:54:27;;;;;;;7.53;6.28;;;14.90;99.90;;;;;;5032399;28;20892;-74
2022/06/13 02:57:25;;;;;;;12.50;7.13;;;14.90;99.90;;;;;;5033569;28;20069;-75
2022/06/13 03:00:13;;;;;;;10.45;7.50;;;14.80;99.90;;;;;;5032117;28;20141;-74
2022/06/13 03:02:49;;;;;;;12.95;7.40;;;14.80;99.90;;;;;;5031635;28;20053;-75
2022/06/13 03:05:26;;;;;;;;;;;14.70;99.90;;;;;;5034187;28;20447;-74
2022/06/13 03:07:59;;;;;;;10.13;7.07;;;14.70;99.90;;;;;;5032723;28;19920;-75
2022/06/13 03:10:37;;;;;;;9.45;7.70;;;14.70;99.90;;;;;;5031772;28;20041;-74
2022/06/13 03:13:09;;;;;;;10.43;7.57;;;14.70;99.90;;;;;;5029661;28;20095;-75
2022/06/13 03:15:48;;;;;;;10.57;8.00;;;14.70;99.90;;;;;;5014000;28;20061;-75
2022/06/13 03:18:21;;;;;;;9.43;7.68;;;14.80;99.90;;;;;;5012268;28;20049;-74
2022/06/13 03:20:53;;;;;;;10.60;8.30;;;14.80;99.90;;;;;;5013656;28;20091;-74
2022/06/13 03:23:24;;;;;;;16.98;9.65;;;14.80;99.90;;;;;;5011720;28;20104;-75
2022/06/13 03:25:56;;;;;;;14.15;8.05;;;14.70;99.90;;;;;;5012278;28;20093;-74
2022/06/13 03:28:29;;;;;;;12.15;8.38;;;14.70;99.90;;;;;;5013659;28;20065;-75
2022/06/13 03:31:02;;;;;;;12.20;7.68;;;14.80;99.90;;;;;;5015260;28;20037;-74
2022/06/13 03:33:43;;;;;;;11.60;7.57;;;14.90;99.90;;;;;;5031441;28;20045;-74
2022/06/13 03:36:17;;;;;;;9.77;7.28;;;15.00;99.90;;;;;;5031903;28;20057;-73
2022/06/13 03:38:50;;;;;;;13.10;7.32;;;15.00;99.90;;;;;;5036017;28;20408;-74
2022/06/13 03:41:22;;;;;;;9.02;7.20;;;15.00;99.90;;;;;;5036745;28;20121;-74
2022/06/13 03:43:53;;;;;;;9.93;7.15;;;15.10;99.90;;;;;;5034808;28;20558;-75
2022/06/13 03:46:26;;;;;;;14.73;6.97;;;15.10;99.90;;;;;;5036539;28;20053;-75
2022/06/13 03:48:59;;;;;;;10.10;6.80;;;15.10;99.90;;;;;;5036826;28;20073;-74
2022/06/13 03:51:33;;;;;;;10.55;6.35;;;15.20;99.90;;;;;;5036014;28;20437;-75
2022/06/13 03:54:07;;;;;;;8.95;6.63;;;15.30;99.90;;;;;;5034261;28;20042;-74
2022/06/13 03:56:42;;;;;;;9.23;6.40;;;15.80;99.90;;;;;;5037717;28;20400;-75
2022/06/13 03:59:13;;;;;;;7.38;5.13;;;16.70;99.90;;;;;;5036825;28;20125;-74
2022/06/13 04:01:44;;;;;;;9.32;6.15;;;17.50;99.90;;;;;;5034197;28;20115;-75
2022/06/13 04:04:18;;;;;;;9.50;5.20;;;18.20;99.90;;;;;;5032596;28;20033;-75
2022/06/13 04:06:47;;;;;;;8.48;5.53;;;18.90;99.90;;;;;;5041553;28;20049;-75
2022/06/13 04:09:19;;;;;;;7.88;5.18;;;19.60;99.90;;;;;;5050764;28;20045;-75
2022/06/13 04:12:13;;;;;;;8.40;4.10;;;20.40;99.90;;;;;;5048927;28;20090;-74
2022/06/13 04:15:10;;;;;;;8.13;3.95;;;21.10;99.90;;;;;;5044546;28;20037;-76
2022/06/13 04:17:41;;;;;;;;;;;21.80;99.90;;;;;;5039648;28;20041;-75
2022/06/13 04:20:18;;;;;;;13.27;3.63;;;22.20;99.90;;;;;;5040725;28;19921;-75
2022/06/13 04:22:53;;;;;;;7.85;3.95;;;22.30;99.90;;;;;;5035507;28;20112;-75
2022/06/13 04:25:27;;;;;;;12.23;4.63;;;22.10;99.90;;;;;;5034766;28;20117;-76
2022/06/13 04:28:01;;;;;;;7.13;3.78;;;22.70;99.90;;;;;;5033662;28;20049;-75
2022/06/13 04:30:31;;;;;;;10.07;4.82;;;23.10;99.90;;;;;;5029848;28;20042;-75
2022/06/13 04:33:04;;;;;;;7.13;3.28;;;23.80;99.90;;;;;;5016851;28;20559;-75
2022/06/13 04:35:34;;;;;;;12.65;3.63;;;24.60;99.90;;;;;;5016853;28;20563;-75
2022/06/13 04:38:04;;;;;;;5.75;3.88;;;25.10;99.90;;;;;;5015266;28;20052;-75
2022/06/13 04:40:35;;;;;;;5.60;3.80;;;25.80;99.90;;;;;;5014214;28;20073;-74
2022/06/13 04:43:07;;;;;;;9.73;3.75;;;25.90;99.90;;;;;;5014104;28;20501;-77
2022/06/13 04:45:49;;;;;;;6.78;4.15;;;25.90;99.90;;;;;;5031717;28;20045;-75
2022/06/13 04:48:17;;;;;;;9.43;4.50;;;26.10;99.90;;;;;;5037020;28;20047;-76
2022/06/13 04:50:48;;;;;;;14.45;5.75;;;26.60;99.90;;;;;;5045153;28;20065;-75
2022/06/13 04:53:19;;;;;;;10.68;4.65;;;26.90;99.90;;;;;;5035705;28;20076;-76
2022/06/13 04:55:49;;;;;;;7.22;3.83;;;26.90;99.90;;;;;;5034072;28;20562;-75
2022/06/13 04:58:23;;;;;;;9.23;3.95;;;27.70;99.90;;;;;;5033734;28;20064;-74
2022/06/13 05:00:56;;;;;;;7.50;3.97;;;28.30;99.90;;;;;;5033622;28;20049;-75
2022/06/13 05:03:26;;;;;;;5.78;3.78;;;28.50;99.90;;;;;;5035549;28;20033;-75
2022/06/13 05:05:56;;;;;;;9.75;4.10;;;28.60;99.90;;;;;;5034148;28;20037;-75
2022/06/13 05:08:28;;;;;;;7.55;3.92;;;28.70;99.90;;;;;;5034129;28;20049;-75
2022/06/13 05:11:02;;;;;;;5.97;4.03;;;28.70;99.90;;;;;;5033696;28;20396;-74
2022/06/13 05:13:29;;;;;;;12.77;4.35;;;29.10;99.90;;;;;;5032130;28;20475;-74
2022/06/13 05:16:06;;;;;;;8.38;4.97;;;29.20;99.90;;;;;;5024315;28;20075;-74
2022/06/13 05:18:53;;;;;;;9.05;6.40;;;29.40;99.90;;;;;;5031731;28;20041;-75
2022/06/13 05:21:38;;;;;;;8.32;6.07;;;29.60;99.90;;;;;;5030356;28;20287;-74
2022/06/13 05:24:27;;;;;;;5.83;3.90;;;29.70;99.90;;;;;;4993041;28;1182968;-75
2022/06/13 05:26:54;;;;;;;5.47;3.75;;;29.00;99.90;;;;;;5035658;28;20042;-75
2022/06/13 05:29:22;;;;;;;9.05;4.72;;;29.00;99.90;;;;;;5031818;28;20041;-74
2022/06/13 05:31:49;;;;;;;6.30;3.78;;;28.90;99.90;;;;;;5027297;28;20097;-75
2022/06/13 05:34:23;;;;;;;7.40;5.20;;;29.10;99.90;;;;;;5031106;28;20033;-74
2022/06/13 05:36:51;;;;;;;11.38;6.30;;;29.00;99.90;;;;;;5031591;28;20041;-75
2022/06/13 05:39:19;;;;;;;11.65;5.35;;;28.70;99.90;;;;;;5030259;28;20060;-74
2022/06/13 05:41:47;;;;;;;12.02;6.57;;;28.40;99.90;;;;;;5028033;28;20476;-75
2022/06/13 05:44:14;;;;;;;11.40;6.70;;;28.00;99.90;;;;;;5021180;28;20042;-75
2022/06/13 05:46:41;;;;;;;14.00;8.10;;;28.40;99.70;;;;;;5023970;28;20056;-75
2022/06/13 05:49:12;;;;;;;8.68;5.70;;;28.30;99.90;;;;;;5024765;28;20091;-75
2022/06/13 05:51:39;;;;;;;11.40;6.55;;;28.50;99.90;;;;;;5024698;28;20045;-75
2022/06/13 05:54:06;;;;;;;14.18;6.13;;;28.60;99.90;;;;;;5023893;28;20068;-75
2022/06/13 05:56:36;;;;;;;14.38;7.57;;;28.80;99.90;;;;;;5027846;28;20065;-74
2022/06/13 05:59:03;;;;;;;14.48;9.05;;;28.70;99.90;;;;;;5021850;28;20093;-75
2022/06/13 06:01:32;;;;;;;16.08;10.13;;;28.40;99.90;;;;;;5024215;28;20111;-75
2022/06/13 06:03:59;;;;;;;16.65;11.50;;;27.90;99.90;;;;;;5020423;28;20121;-74
2022/06/13 06:06:29;;;;;;;14.90;9.75;;;27.70;99.40;;;;;;5026874;28;20053;-74
2022/06/13 06:08:57;;;;;;;15.25;10.13;;;27.70;99.90;;;;;;5025022;28;20038;-74
2022/06/13 06:11:25;;;;;;;15.93;10.02;;;27.50;99.90;;;;;;5033502;28;20041;-75
2022/06/13 06:13:54;;;;;;;18.33;10.43;;;27.50;99.90;;;;;;5028705;28;20049;-75
2022/06/13 06:16:23;;;;;;;15.25;9.88;;;27.50;99.80;;;;;;5031508;28;20060;-75
2022/06/13 06:18:51;;;;;;;15.82;10.43;;;27.30;99.90;;;;;;5043338;28;20042;-76
2022/06/13 06:21:18;;;;;;;14.48;9.77;;;27.20;99.90;;;;;;5040583;28;20496;-76
2022/06/13 06:23:46;;;;;;;20.90;10.75;;;27.20;99.90;;;;;;5043882;28;20103;-76
2022/06/13 06:26:16;;;;;;;15.45;9.93;;;27.10;99.90;;;;;;5035796;28;20459;-76
2022/06/13 06:28:43;;;;;;;17.45;10.32;;;26.90;99.90;;;;;;5035184;28;20046;-76
2022/06/13 06:31:12;;;;;;;17.60;10.10;;;26.60;99.90;;;;;;5034293;28;20505;-77
2022/06/13 06:33:40;;;;;;;19.63;10.70;;;26.50;99.90;;;;;;5033438;28;20056;-77
2022/06/13 06:36:09;;;;;;;19.27;11.57;;;26.60;99.90;;;;;;5027062;28;20072;-77
2022/06/13 06:38:36;;;;;;;18.05;10.82;;;26.50;99.90;;;;;;5033858;28;20037;-77
2022/06/13 06:41:03;;;;;;;17.25;10.32;;;26.30;99.90;;;;;;5033746;28;20053;-76
2022/06/13 06:43:31;;;;;;;20.67;10.55;;;26.60;99.90;;;;;;5033284;28;20045;-75
2022/06/13 06:45:58;;;;;;;18.67;10.02;;;26.70;99.90;;;;;;5027129;28;20045;-77
2022/06/13 06:48:28;;;;;;;24.23;11.23;;;26.60;99.90;;;;;;5033415;28;20091;-77
2022/06/13 06:50:55;;;;;;;18.38;10.75;;;26.60;99.90;;;;;;5035500;28;20065;-78
2022/06/13 06:53:25;;;;;;;19.52;10.85;;;26.80;99.90;;;;;;5034572;28;20041;-77
2022/06/13 07:01:22;;;;;;;15.50;9.00;;;26.80;99.90;;;;;;5032785;28;20041;-76
2022/06/13 07:03:51;;;;;;;15.13;9.32;;;26.80;99.90;;;;;;5034323;28;20045;-79
2022/06/13 07:06:19;;;;;;;18.02;11.52;;;26.90;99.90;;;;;;5033719;28;20046;-77
2022/06/13 07:08:46;;;;;;;15.32;9.38;;;26.90;99.90;;;;;;5033614;28;20038;-78
2022/06/13 07:14:04;;;;;;;18.38;12.15;;;27.00;99.90;;;;;;5036760;28;20053;-77
2022/06/13 07:16:32;;;;;;;14.57;8.65;;;26.70;99.90;;;;;;5038825;28;20103;-78
2022/06/13 07:19:00;;;;;;;13.52;10.73;;;26.50;99.80;;;;;;5038973;28;20098;-78
2022/06/13 07:21:28;;;;;;;16.88;11.55;;;26.60;99.90;;;;;;5037828;28;20052;-77
2022/06/13 07:23:55;;;;;;;17.90;12.93;;;27.00;99.90;;;;;;5037438;28;20512;-79
2022/06/13 07:26:22;;;;;;;15.68;9.07;;;27.20;99.90;;;;;;5037501;28;20475;-78
2022/06/13 07:28:50;;;;;;;16.98;8.80;;;27.40;99.90;;;;;;5036575;28;20140;-77
2022/06/13 07:31:20;;;;;;;15.27;8.10;;;27.30;99.90;;;;;;5037862;28;20046;-77
2022/06/13 07:33:49;;;;;;;15.82;8.23;;;27.30;98.90;;;;;;5037518;28;20071;-78
2022/06/13 07:36:19;;;;;;;18.13;10.95;;;27.50;99.10;;;;;;5037470;28;20098;-77
2022/06/13 07:38:48;;;;;;;16.58;10.88;;;27.40;99.00;;;;;;5038457;28;20049;-78
2022/06/13 07:41:18;;;;;;;16.00;9.30;;;27.50;99.30;;;;;;5037631;28;20046;-77
2022/06/13 07:43:46;;;;;;;17.50;9.68;;;27.50;98.70;;;;;;5037172;28;20041;-76
2022/06/13 07:46:14;;;;;;;17.30;8.50;;;27.60;98.70;;;;;;5033175;28;20088;-76
2022/06/13 07:48:41;;;;;;;13.70;7.30;;;27.70;98.60;;;;;;5036702;28;20118;-77
2022/06/13 07:51:09;;;;;;;15.25;8.35;;;27.50;97.40;;;;;;5035756;28;20042;-75
2022/06/13 07:53:38;;;;;;;12.45;7.30;;;27.40;98.40;;;;;;5035877;28;20045;-76
2022/06/13 07:56:05;;;;;;;12.38;6.45;;;27.40;97.50;;;;;;5035985;28;20091;-76
2022/06/13 07:58:35;;;;;;;9.95;6.43;;;27.10;98.00;;;;;;5036038;28;20103;-76
2022/06/13 08:01:07;;;;;;;19.25;9.00;;;26.80;98.30;;;;;;5050140;28;20048;-77
2022/06/13 08:03:35;;;;;;;16.20;8.18;;;27.10;98.40;;;;;;5039024;28;20096;-77
2022/06/13 08:06:04;;;;;;;10.70;6.65;;;27.20;97.90;;;;;;5051382;28;20107;-74
2022/06/13 08:08:34;;;;;;;14.00;6.05;;;27.40;97.60;;;;;;5034860;28;20107;-76
2022/06/13 08:11:06;;;;;;;11.90;5.95;;;27.30;97.70;;;;;;5036273;28;20477;-76
2022/06/13 08:13:35;;;;;;;12.32;6.78;;;27.40;97.80;;;;;;5036007;28;20511;-75
2022/06/13 08:16:02;;;;;;;12.10;6.72;;;27.60;97.20;;;;;;5036350;28;20045;-76
2022/06/13 08:18:30;;;;;;;15.55;7.47;;;27.60;97.10;;;;;;5029631;28;20116;-75
2022/06/13 08:20:57;;;;;;;15.18;6.55;;;27.80;97.50;;;;;;5054823;28;20072;-77
2022/06/13 08:23:24;;;;;;;15.35;7.68;;;27.80;98.40;;;;;;5055003;28;20056;-77
2022/06/13 08:25:52;;;;;;;12.95;7.43;;;27.80;99.40;;;;;;5050255;28;20048;-75
2022/06/13 08:28:21;;;;;;;14.10;6.88;;;27.80;99.00;;;;;;5035940;28;20041;-77
2022/06/13 08:30:52;;;;;;;11.10;6.05;;;27.90;99.80;;;;;;5019799;28;20100;-77
2022/06/13 08:33:21;;;;;;;11.95;8.80;;;27.40;99.90;;;;;;5051744;28;20053;-77
2022/06/13 08:35:48;;;;;;;15.43;6.40;;;27.30;99.90;;;;;;5039190;28;20451;-78
2022/06/13 08:38:16;;;;;;;13.48;6.93;;;27.40;99.90;;;;;;5040932;28;20064;-76
2022/06/13 08:40:51;;;;;;;15.82;9.90;;;27.50;99.90;;;;;;5036880;28;20096;-78
2022/06/13 08:43:37;;;;;;;14.20;6.57;;;27.50;99.90;;;;;;5037182;28;20068;-76
2022/06/13 08:46:09;;;;;;;;;;;27.50;99.90;;;;;;5037374;28;20045;-77
2022/06/13 08:48:41;;;;;;;10.75;5.57;;;27.80;99.90;;;;;;5036704;28;19943;-78
2022/06/13 08:51:10;;;;;;;10.93;7.13;;;27.80;99.90;;;;;;5036410;28;20049;-79
2022/06/13 08:53:48;;;;;;;10.88;6.60;;;27.90;97.90;;;;;;5034891;28;20049;-76
2022/06/13 08:56:19;;;;;;;9.98;6.82;;;27.90;97.30;;;;;;5036246;28;20459;-78
2022/06/13 08:58:53;;;;;;;10.70;6.47;;;27.90;97.80;;;;;;5035185;28;20052;-77
2022/06/13 09:01:27;;;;;;;15.90;9.52;;;27.60;98.70;;;;;;5035432;28;20135;-78
2022/06/13 09:03:59;;;;;;;14.70;8.65;;;27.80;98.90;;;;;;5036296;28;20053;-79
2022/06/13 09:06:37;;;;;;;15.65;8.75;;;27.90;97.40;;;;;;5037049;28;20033;-78
2022/06/13 09:09:11;;;;;;;13.50;8.50;;;28.10;96.20;;;;;;5036414;28;20069;-77
2022/06/13 09:11:46;;;;;;;13.10;7.43;;;28.20;95.80;;;;;;5037804;28;20084;-77
2022/06/13 09:14:21;;;;;;;14.25;6.68;;;28.00;95.80;;;;;;5038612;28;20384;-78
2022/06/13 09:16:57;;;;;;;13.10;8.27;;;27.80;96.00;;;;;;5038973;28;20092;-77
2022/06/13 09:19:29;;;;;;;14.52;8.40;;;28.10;95.80;;;;;;5036066;28;20172;-78
2022/06/13 09:22:03;;;;;;;13.73;6.80;;;28.30;93.80;;;;;;5037616;28;20041;-79
2022/06/13 09:24:41;;;;;;;11.63;6.43;;;28.40;94.00;;;;;;5034529;28;20103;-77
2022/06/13 09:27:14;;;;;;;14.18;6.30;;;28.70;93.70;;;;;;5036079;28;20548;-77
2022/06/13 09:29:50;;;;;;;13.65;7.45;;;28.80;93.70;;;;;;5035882;28;20496;-78
2022/06/13 09:32:19;;;;;;;13.32;8.07;;;28.80;94.50;;;;;;5035836;28;20053;-78
2022/06/13 09:34:49;;;;;;;8.95;5.03;;;28.80;92.50;;;;;;5036044;28;20041;-77
2022/06/13 09:37:23;;;;;;;8.57;5.45;;;28.80;91.10;;;;;;5035099;28;20477;-78
2022/06/13 09:39:51;;;;;;;13.52;6.93;;;28.70;90.70;;;;;;5036156;28;20095;-77
2022/06/13 09:42:44;;;;;;;16.08;8.65;;;28.60;92.00;;;;;;5036406;28;20123;-78
2022/06/13 09:45:41;;;;;;;7.60;5.90;;;28.90;92.10;;;;;;5036084;28;20041;-78
2022/06/13 09:48:25;;;;;;;7.25;5.53;;;29.00;89.10;;;;;;5035702;28;20099;-77
2022/06/13 09:51:00;;;;;;;11.32;5.70;;;29.10;90.30;;;;;;5036703;28;20049;-78
2022/06/13 09:53:34;;;;;;;9.20;6.00;;;28.90;90.30;;;;;;5036290;28;20492;-77
2022/06/13 09:56:06;;;;;;;9.32;4.72;;;28.90;90.10;;;;;;5034630;28;20479;-79
2022/06/13 09:58:48;;;;;;;6.30;4.50;;;28.90;89.60;;;;;;5036162;28;20159;-76
2022/06/13 10:01:24;;;;;;;9.60;5.93;;;28.80;90.10;;;;;;5035166;28;20034;-78
2022/06/13 10:03:59;;;;;;;11.57;6.93;;;28.50;90.40;;;;;;5034618;28;20554;-78
2022/06/13 10:06:33;;;;;;;8.43;5.28;;;28.50;91.20;;;;;;5035447;28;20045;-78
2022/06/13 10:09:14;;;;;;;14.32;6.03;;;28.70;91.40;;;;;;5035233;28;20390;-78
2022/06/13 10:12:01;;;;;;;10.23;5.82;;;28.70;91.20;;;;;;5035769;28;20038;-78
2022/06/13 10:14:56;;;;;;;8.50;5.53;;;28.80;91.30;;;;;;5035539;28;20061;-77
2022/06/13 10:17:49;;;;;;;9.07;5.72;;;28.80;90.90;;;;;;5028856;28;20049;-78
2022/06/13 10:20:25;;;;;;;10.68;6.03;;;28.80;91.10;;;;;;5034322;28;20053;-78
2022/06/13 10:23:00;;;;;;;12.68;6.35;;;28.80;91.10;;;;;;5034890;28;20394;-78
2022/06/13 10:25:42;;;;;;;10.55;8.63;;;29.10;91.00;;;;;;5034540;28;20400;-78
2022/06/13 10:28:24;;;;;;;9.20;6.85;;;29.30;90.50;;;;;;5033997;28;20053;-78
2022/06/13 10:31:00;;;;;;;7.40;5.10;;;29.20;90.40;;;;;;5034180;28;20124;-78
2022/06/13 10:33:44;;;;;;;7.53;5.03;;;29.00;89.40;;;;;;5033590;28;20050;-78
2022/06/13 10:36:19;;;;;;;6.97;5.15;;;28.60;88.40;;;;;;5035217;28;20389;-78
2022/06/13 10:38:57;;;;;;;14.07;6.95;;;28.40;89.40;;;;;;5033906;28;20459;-78
2022/06/13 10:41:26;;;;;;;9.00;5.95;;;28.60;90.00;;;;;;5035150;28;20046;-78
2022/06/13 10:43:55;;;;;;;9.85;6.72;;;28.60;89.80;;;;;;5036818;28;20073;-78
2022/06/13 10:46:22;;;;;;;8.65;6.10;;;28.80;90.10;;;;;;5037464;28;20064;-78
2022/06/13 10:48:57;;;;;;;11.48;7.45;;;28.90;90.00;;;;;;5035834;28;20057;-77
2022/06/13 10:51:24;;;;;;;8.48;6.47;;;29.00;90.00;;;;;;5035394;28;20061;-79
2022/06/13 10:53:57;;;;;;;16.92;12.18;;;28.90;89.20;;;;;;5036257;28;20084;-78
2022/06/13 10:56:36;;;;;;;6.32;4.95;;;28.90;88.80;;;;;;5037281;28;20473;-79
2022/06/13 10:59:03;;;;;;;10.23;6.82;;;29.10;88.70;;;;;;5034273;28;20072;-77
2022/06/13 11:01:32;;;;;;;6.97;5.07;;;29.10;88.70;;;;;;5035174;28;20045;-77
2022/06/13 11:04:03;;;;;;;7.45;5.20;;;29.00;86.90;;;;;;5034801;28;20053;-78
2022/06/13 11:06:46;;;;;;;12.52;8.00;;;28.60;85.30;;;;;;5036031;28;20445;-77
2022/06/13 11:09:23;;;;;;;6.80;5.13;;;28.50;84.90;;;;;;5042700;28;20057;-77
2022/06/13 11:11:55;;;;;;;10.15;5.35;;;28.50;85.00;;;;;;5039460;28;20053;-77
2022/06/13 11:14:33;;;;;;;8.27;5.57;;;28.70;85.80;;;;;;5045377;28;20559;-77
2022/06/13 11:22:39;;;;;;;7.45;5.18;;;29.00;86.80;;;;;;5040583;28;20079;-78
2022/06/13 11:25:22;;;;;;;5.80;4.47;;;29.30;85.20;;;;;;5037587;28;20143;-78
2022/06/13 11:28:03;;;;;;;12.40;7.93;;;29.50;83.30;;;;;;5034010;28;20514;-77
2022/06/13 11:30:41;;;;;;;8.60;4.45;;;29.60;82.90;;;;;;5036950;28;20415;-78
2022/06/13 11:33:21;;;;;;;8.23;5.68;;;29.90;83.50;;;;;;5038005;28;20455;-78
2022/06/13 11:35:53;;;;;;;7.32;5.55;;;30.00;84.30;;;;;;5035171;28;20403;-77
2022/06/13 11:38:23;;;;;;;7.28;5.70;;;30.10;84.20;;;;;;5034979;28;20373;-77
2022/06/13 11:41:05;;;;;;;11.95;5.53;;;30.30;82.80;;;;;;5035484;28;20459;-78
2022/06/13 11:43:38;;;;;;;7.10;4.70;;;30.40;81.40;;;;;;5036015;28;20095;-77
2022/06/13 11:46:08;;;;;;;8.93;6.35;;;30.70;79.80;;;;;;5036005;28;20123;-78
2022/06/13 11:48:36;;;;;;;11.85;6.10;;;30.70;78.30;;;;;;5036527;28;20124;-78
2022/06/13 11:51:07;;;;;;;7.75;4.68;;;30.70;77.30;;;;;;5036700;28;20045;-77
2022/06/13 11:53:41;;;;;;;7.38;4.15;;;30.80;77.60;;;;;;5035682;28;20201;-79
2022/06/13 11:56:12;;;;;;;6.85;5.70;;;30.90;77.40;;;;;;5037642;28;20065;-79
2022/06/13 11:58:47;;;;;;;9.68;5.80;;;30.40;79.20;;;;;;5038718;28;20475;-78
2022/06/13 12:01:22;;;;;;;8.60;5.50;;;30.10;80.90;;;;;;5041060;28;20045;-79
2022/06/13 12:04:00;;;;;;;6.18;5.57;;;30.10;82.00;;;;;;5039437;28;20059;-78
2022/06/13 12:06:34;;;;;;;8.35;5.18;;;30.30;81.40;;;;;;5039904;28;20056;-78
2022/06/13 12:09:05;;;;;;;11.07;4.88;;;30.40;80.90;;;;;;5039602;28;20082;-78
2022/06/13 12:11:44;;;;;;;5.10;4.60;;;30.20;79.10;;;;;;5044048;28;20108;-78
2022/06/13 12:14:11;;;;;;;5.25;4.43;;;30.20;80.10;;;;;;5039078;28;20045;-77
2022/06/13 12:16:46;;;;;;;7.97;5.80;;;30.20;79.10;;;;;;5039705;28;20048;-78
2022/06/13 12:19:25;;;;;;;9.18;5.50;;;30.20;78.60;;;;;;5038815;28;20497;-77
2022/06/13 12:22:00;;;;;;;4.97;3.72;;;30.10;78.30;;;;;;5038217;28;20071;-79
2022/06/13 12:24:35;;;;;;;7.13;6.10;;;29.90;77.70;;;;;;5036643;28;20132;-75
2022/06/13 12:27:12;;;;;;;8.63;4.93;;;29.60;78.30;;;;;;5036088;28;20037;-75
2022/06/13 12:30:04;;;;;;;13.93;5.15;;;29.60;78.80;;;;;;5035900;28;20045;-76
2022/06/13 12:32:35;;;;;;;9.68;5.70;;;29.60;76.90;;;;;;5035987;28;20120;-76
2022/06/13 12:35:23;;;;;;;4.65;3.65;;;29.60;77.40;;;;;;5035789;28;20041;-76
2022/06/13 12:38:01;;;;;;;5.80;4.30;;;29.60;76.70;;;;;;5036186;28;20068;-76
2022/06/13 12:40:38;;;;;;;5.05;4.45;;;29.40;76.50;;;;;;5036288;28;20037;-76
2022/06/13 12:43:43;;;;;;;7.50;4.35;;;29.40;77.40;;;;;;5035718;28;20500;-75
2022/06/13 12:46:25;;;;;;;5.38;4.40;;;29.40;76.00;;;;;;4999272;28;20077;-76
2022/06/13 12:49:08;;;;;;;8.27;6.93;;;29.50;76.60;;;;;;5036441;28;20072;-75
2022/06/13 12:51:47;;;;;;;13.73;6.95;;;29.40;80.80;;;;;;5035495;28;20042;-76
2022/06/13 12:54:40;;;;;;;7.15;3.63;;;29.40;81.70;;;;;;5035189;28;20456;-75
2022/06/13 12:57:18;;;;;;;6.72;4.22;;;29.40;81.70;;;;;;5015122;28;20046;-75
2022/06/13 13:00:06;;;;;;;6.18;3.65;;;29.10;80.70;;;;;;5017384;28;20050;-75
2022/06/13 13:02:40;;;;;;;9.35;4.55;;;29.10;81.30;;;;;;5024633;28;20041;-76
2022/06/13 13:05:26;;;;;;;8.33;6.93;;;29.30;82.00;;;;;;5035207;28;20110;-75
2022/06/13 13:08:11;;;;;;;7.78;5.75;;;29.50;81.80;;;;;;5035121;28;20063;-75
2022/06/13 13:10:54;;;;;;;10.75;6.10;;;29.60;79.90;;;;;;5033160;28;20048;-75
2022/06/13 13:13:47;;;;;;;8.32;5.70;;;29.60;78.90;;;;;;5034766;28;20053;-75
2022/06/13 13:16:27;;;;;;;8.57;6.72;;;29.60;77.80;;;;;;5035348;28;20064;-76
2022/06/13 13:19:09;;;;;;;6.72;5.55;;;29.60;76.40;;;;;;5034625;28;20533;-74
2022/06/13 13:21:44;;;;;;;7.35;6.22;;;29.60;74.30;;;;;;5034694;28;20132;-76
2022/06/13 13:24:41;;;;;;;15.60;10.27;;;29.50;74.70;;;;;;5034178;28;20509;-76
2022/06/13 13:27:13;;;;;;;5.65;4.88;;;29.40;75.40;;;;;;5032862;28;20045;-75
2022/06/13 13:29:49;;;;;;;5.07;3.70;;;29.50;76.90;;;;;;5032765;28;20065;-74